Terminal Aerodrome Forecast
Issued by NWS Sterling, VA

Current Version | Previous Version | Graphics & Text | Print | Product List | Glossary On
Versions: 1 2 3 4 5 6 7 8 9 10 11 12 13 14 15 16 17 18 19 20
000
FTUS41 KLWX 010539
TAFMRB
TAF
KMRB 010539Z 0106/0206 19005KT P6SM BKN080
     FM011000 27004KT P6SM SCT250
     FM011600 26009KT P6SM SCT050
     FM011800 26010KT P6SM BKN050
     FM012300 28006KT P6SM SCT250=

USA.gov is the U.S. government's official web portal to all federal, state and local government web resources and services.